Terminal Aerodrome Forecast
Issued by NWS

Home | Current Version | Previous Version | Text Only | Print | Product List | Glossary Off
Versions: 1 2 3 4 5 6 7 8 9 10 11 12 13 14 15 16 17 18 19 20 21 22 23 24 25 26 27 28 29 30 31

000
FTUS43 KABR 281700
TAFPIR
TAF
KPIR 281722Z 2818/2918 VRB05KT P6SM -DZ BKN008 OVC020
     FM282100 VRB05KT P6SM OVC050
     FM290700 VRB06KT 2SM BR SCT250
     FM291300 VRB05KT P6SM SKC=

USA.gov is the U.S. government's official web portal to all federal, state and local government web resources and services.